createdAt,value
2023-02-19T01:10:48.495Z,591.00
2023-02-19T01:22:47.813Z,586.00
2023-02-19T01:23:47.838Z,586.00
2023-02-19T01:24:47.850Z,580.00
2023-02-19T01:25:47.876Z,585.00
2023-02-19T01:26:47.904Z,588.00
2023-02-19T01:27:47.930Z,586.00
2023-02-19T01:28:47.949Z,588.00
2023-02-19T01:29:47.962Z,598.00
2023-02-19T01:30:48.065Z,596.00
2023-02-19T01:31:48.076Z,597.00
2023-02-19T01:32:48.046Z,597.00
2023-02-19T01:33:48.056Z,598.00
2023-02-19T01:34:48.081Z,601.00
2023-02-19T01:35:48.107Z,600.00
2023-02-19T01:36:48.114Z,604.00
2023-02-19T01:37:48.144Z,604.00
2023-02-19T01:38:48.154Z,608.00
2023-02-19T01:39:48.170Z,602.00
2023-02-19T01:40:48.189Z,609.00
2023-02-19T01:41:48.201Z,606.00
2023-02-19T01:42:48.290Z,608.00
2023-02-19T01:43:48.296Z,602.00
2023-02-19T01:44:48.301Z,605.00
2023-02-19T01:45:48.305Z,607.00
2023-02-19T01:46:48.355Z,610.00
2023-02-19T01:47:48.391Z,609.00
2023-02-19T01:48:48.410Z,607.00
2023-02-19T01:49:48.443Z,605.00
2023-02-19T01:50:48.434Z,607.00
2023-02-19T01:51:48.514Z,611.00
2023-02-19T01:52:48.526Z,613.00
2023-02-19T01:53:48.536Z,607.00
2023-02-19T01:54:48.559Z,602.00
2023-02-19T01:55:48.581Z,599.00
2023-02-19T01:56:48.593Z,598.00
2023-02-19T01:57:48.619Z,591.00
2023-02-19T01:58:48.639Z,590.00
2023-02-19T01:59:48.667Z,588.00
2023-02-19T02:00:48.700Z,585.00
2023-02-19T02:01:48.744Z,586.00
2023-02-19T02:02:48.729Z,592.00
2023-02-19T02:03:48.764Z,586.00
2023-02-19T02:04:51.538Z,591.00
2023-02-19T02:05:48.825Z,596.00
2023-02-19T02:06:48.761Z,594.00
2023-02-19T02:07:48.745Z,595.00
2023-02-19T02:08:48.748Z,602.00
2023-02-19T02:09:48.736Z,599.00
2023-02-19T02:10:48.846Z,591.00
2023-02-19T02:11:48.744Z,601.00
2023-02-19T02:12:48.724Z,599.00
2023-02-19T02:13:48.716Z,601.00
2023-02-19T02:14:48.728Z,600.00
2023-02-19T02:15:48.705Z,602.00
2023-02-19T02:16:48.697Z,596.00
2023-02-19T02:17:48.684Z,601.00
2023-02-19T02:18:48.687Z,598.00
2023-02-19T02:19:48.674Z,606.00
2023-02-19T02:20:48.669Z,597.00
2023-02-19T02:21:48.668Z,599.00
2023-02-19T02:22:48.653Z,604.00
2023-02-19T02:23:48.647Z,600.00
2023-02-19T02:24:48.707Z,603.00
2023-02-19T02:25:48.638Z,601.00
2023-02-19T02:26:48.638Z,607.00
2023-02-19T02:27:48.624Z,599.00
2023-02-19T02:28:48.681Z,590.00
2023-02-19T02:29:48.610Z,585.00
2023-02-19T02:30:48.610Z,575.00
2023-02-19T02:31:48.734Z,579.00
2023-02-19T02:32:48.662Z,583.00
2023-02-19T02:33:48.588Z,583.00
2023-02-19T02:34:48.577Z,589.00
2023-02-19T02:35:49.534Z,593.00
2023-02-19T02:36:48.555Z,588.00
2023-02-19T02:37:48.561Z,585.00
2023-02-19T02:38:48.569Z,588.00
2023-02-19T02:39:48.545Z,598.00
2023-02-19T02:40:48.547Z,596.00
2023-02-19T02:41:48.534Z,590.00
2023-02-19T02:42:48.537Z,593.00
2023-02-19T02:43:48.522Z,592.00
2023-02-19T02:44:48.518Z,583.00
2023-02-19T02:45:48.524Z,575.00
2023-02-19T02:46:48.514Z,572.00
2023-02-19T02:47:48.497Z,578.00
2023-02-19T02:48:48.491Z,573.00
2023-02-19T02:49:48.491Z,579.00
2023-02-19T02:50:48.483Z,589.00
2023-02-19T02:51:48.522Z,588.00
2023-02-19T02:52:48.467Z,591.00
2023-02-19T02:53:48.449Z,588.00
2023-02-19T02:54:48.452Z,588.00
2023-02-19T02:55:48.547Z,594.00
2023-02-19T02:56:48.443Z,586.00
2023-02-19T02:57:48.429Z,584.00
2023-02-19T02:58:48.433Z,582.00
2023-02-19T02:59:48.413Z,581.00
2023-02-19T03:00:48.436Z,568.00
2023-02-19T03:01:48.532Z,556.00
2023-02-19T03:02:48.437Z,568.00
2023-02-19T03:03:48.397Z,567.00
2023-02-19T03:04:48.396Z,573.00
2023-02-19T03:05:48.387Z,575.00
2023-02-19T03:06:48.370Z,568.00
2023-02-19T03:07:48.373Z,578.00
2023-02-19T03:08:48.371Z,581.00
2023-02-19T03:09:49.711Z,579.00
2023-02-19T03:16:48.338Z,579.00
2023-02-19T03:17:48.300Z,584.00
2023-02-19T03:18:48.294Z,581.00
2023-02-19T03:19:48.283Z,586.00
2023-02-19T03:20:48.278Z,586.00
2023-02-19T03:23:48.340Z,579.00
2023-02-19T03:32:48.571Z,587.00
2023-02-19T03:33:48.608Z,584.00
2023-02-19T03:34:48.615Z,581.00
2023-02-19T03:35:48.643Z,583.00
2023-02-19T03:36:48.675Z,580.00
2023-02-19T03:37:48.694Z,578.00
2023-02-19T03:38:48.710Z,576.00
2023-02-19T03:39:48.736Z,573.00
2023-02-19T03:40:48.760Z,582.00
2023-02-19T03:41:48.784Z,578.00
2023-02-19T03:42:48.833Z,574.00
2023-02-19T03:43:48.827Z,575.00
2023-02-19T03:44:48.841Z,578.00
2023-02-19T03:45:48.876Z,576.00
2023-02-19T03:46:48.882Z,578.00
2023-02-19T03:47:48.896Z,578.00
2023-02-19T03:48:48.940Z,578.00
2023-02-19T03:49:49.244Z,581.00
2023-02-19T03:50:49.025Z,580.00
2023-02-19T03:51:48.988Z,581.00
2023-02-19T03:52:49.556Z,581.00
2023-02-19T03:53:49.041Z,583.00
2023-02-19T03:54:49.060Z,586.00
2023-02-19T03:55:49.096Z,589.00
2023-02-19T03:56:49.101Z,581.00
2023-02-19T03:57:49.123Z,578.00
2023-02-19T03:58:49.148Z,576.00
2023-02-19T03:59:49.168Z,573.00
2023-02-19T04:00:49.191Z,574.00
2023-02-19T04:01:49.219Z,582.00
2023-02-19T04:02:49.233Z,574.00
2023-02-19T04:03:49.262Z,579.00
2023-02-19T04:04:49.296Z,584.00
2023-02-19T04:05:49.309Z,582.00
2023-02-19T04:06:49.331Z,579.00
2023-02-19T04:07:49.357Z,575.00
2023-02-19T04:08:50.065Z,576.00
2023-02-19T04:09:49.408Z,571.00
2023-02-19T04:10:49.424Z,570.00
2023-02-19T04:11:49.426Z,571.00
2023-02-19T04:12:49.474Z,573.00
2023-02-19T04:13:49.471Z,569.00
2023-02-19T04:14:49.482Z,569.00
2023-02-19T04:15:49.510Z,573.00
2023-02-19T04:16:49.611Z,575.00
2023-02-19T04:17:49.556Z,571.00
2023-02-19T04:18:49.580Z,570.00
2023-02-19T04:19:49.607Z,576.00
2023-02-19T04:20:49.625Z,571.00
2023-02-19T04:21:49.637Z,569.00
2023-02-19T04:22:49.656Z,571.00
2023-02-19T04:23:49.687Z,575.00
2023-02-19T04:24:49.780Z,576.00
2023-02-19T04:25:49.721Z,580.00
2023-02-19T04:26:49.743Z,574.00
2023-02-19T04:27:49.767Z,574.00
2023-02-19T04:28:49.784Z,579.00
2023-02-19T04:29:49.805Z,579.00
2023-02-19T04:30:49.884Z,576.00
2023-02-19T04:31:49.892Z,580.00
2023-02-19T04:32:49.866Z,576.00
2023-02-19T04:33:49.879Z,575.00
2023-02-19T04:34:49.905Z,573.00
2023-02-19T04:35:49.934Z,575.00
2023-02-19T04:36:49.944Z,573.00
2023-02-19T04:37:49.968Z,568.00
2023-02-19T04:38:49.989Z,562.00
2023-02-19T04:39:50.028Z,571.00
2023-02-19T04:40:50.027Z,570.00
2023-02-19T04:41:50.045Z,569.00
2023-02-19T04:42:50.070Z,567.00
2023-02-19T04:43:50.101Z,571.00
2023-02-19T04:44:50.140Z,572.00
2023-02-19T04:45:50.162Z,560.00
2023-02-19T04:46:50.171Z,567.00
2023-02-19T04:47:50.184Z,569.00
2023-02-19T04:48:50.205Z,572.00
2023-02-19T04:49:50.222Z,572.00
2023-02-19T04:50:50.262Z,569.00
2023-02-19T04:51:50.269Z,574.00
2023-02-19T04:52:51.079Z,568.00
2023-02-19T04:53:50.315Z,571.00
2023-02-19T04:54:50.334Z,563.00
2023-02-19T04:55:50.361Z,570.00
2023-02-19T04:56:50.409Z,571.00
2023-02-19T04:57:51.081Z,570.00
2023-02-19T04:58:50.413Z,570.00
2023-02-19T04:59:50.440Z,565.00
2023-02-19T05:00:50.465Z,560.00
2023-02-19T05:01:50.552Z,548.00
2023-02-19T05:02:50.501Z,561.00
2023-02-19T05:03:50.525Z,560.00
2023-02-19T05:04:50.623Z,559.00
2023-02-19T05:05:50.576Z,566.00
2023-02-19T05:06:50.590Z,567.00
2023-02-19T05:07:50.610Z,570.00
2023-02-19T05:08:50.635Z,565.00
2023-02-19T05:09:50.657Z,553.00
2023-02-19T05:10:50.670Z,561.00
2023-02-19T05:11:50.693Z,564.00
2023-02-19T05:12:50.711Z,566.00
2023-02-19T05:13:50.730Z,566.00
2023-02-19T05:14:50.741Z,562.00
2023-02-19T05:15:50.808Z,564.00
2023-02-19T05:16:50.788Z,567.00
2023-02-19T05:17:50.813Z,567.00
2023-02-19T05:18:50.835Z,566.00
2023-02-19T05:19:50.849Z,571.00
2023-02-19T05:20:50.869Z,567.00
2023-02-19T05:21:50.904Z,567.00
2023-02-19T05:22:50.931Z,569.00
2023-02-19T05:23:50.928Z,567.00
2023-02-19T07:36:53.719Z,550.00
2023-02-19T07:37:53.750Z,554.00
2023-02-19T07:38:53.771Z,546.00
2023-02-19T07:39:53.799Z,551.00
2023-02-19T07:40:53.831Z,538.00
2023-02-19T07:41:53.840Z,542.00
2023-02-19T07:42:53.848Z,543.00
2023-02-19T07:43:53.887Z,542.00
2023-02-19T07:44:53.912Z,534.00
2023-02-19T07:45:53.930Z,543.00
2023-02-19T07:46:53.942Z,550.00
2023-02-19T07:47:53.974Z,539.00
2023-02-19T07:48:54.010Z,542.00
2023-02-19T07:49:54.035Z,546.00
2023-02-19T07:50:54.041Z,546.00
2023-02-19T07:51:54.066Z,554.00
2023-02-19T07:52:54.087Z,556.00
2023-02-19T07:53:54.101Z,553.00
2023-02-19T07:54:54.126Z,561.00
2023-02-19T07:55:54.139Z,557.00
2023-02-19T07:56:54.165Z,557.00
2023-02-19T07:57:54.174Z,549.00
2023-02-19T07:58:54.203Z,539.00
2023-02-19T07:59:54.233Z,533.00
2023-02-19T08:00:54.304Z,530.00
2023-02-19T08:01:54.273Z,535.00
2023-02-19T08:02:54.291Z,542.00
2023-02-19T08:03:54.315Z,548.00
2023-02-19T08:04:54.325Z,545.00
2023-02-19T08:05:54.357Z,552.00
2023-02-19T08:06:54.379Z,553.00
2023-02-19T08:07:54.402Z,561.00
2023-02-19T08:08:56.994Z,557.00
2023-02-19T08:09:54.626Z,556.00
2023-02-19T08:10:54.641Z,560.00
2023-02-19T08:11:54.663Z,562.00
2023-02-19T08:12:54.678Z,555.00
2023-02-19T08:13:54.707Z,561.00
2023-02-19T08:14:54.728Z,560.00
2023-02-19T08:15:57.780Z,561.00
2023-02-19T08:16:55.786Z,561.00
2023-02-19T08:17:54.736Z,562.00
2023-02-19T08:18:54.725Z,561.00
2023-02-19T08:19:54.723Z,563.00
2023-02-19T08:20:54.720Z,562.00
2023-02-19T08:21:54.732Z,562.00
2023-02-19T08:22:54.712Z,563.00
2023-02-19T08:23:55.725Z,567.00
2023-02-19T08:24:54.699Z,561.00
2023-02-19T08:25:55.661Z,565.00
2023-02-19T08:26:54.678Z,565.00
2023-02-19T08:27:54.673Z,563.00
2023-02-19T08:28:54.677Z,559.00
2023-02-19T08:29:54.682Z,554.00
2023-02-19T08:30:54.729Z,556.00
2023-02-19T08:31:54.669Z,559.00
2023-02-19T08:32:54.718Z,557.00
2023-02-19T08:33:54.635Z,554.00
2023-02-19T08:34:54.622Z,552.00
2023-02-19T08:35:54.632Z,541.00
2023-02-19T08:36:54.682Z,543.00
2023-02-19T08:37:54.637Z,551.00
2023-02-19T08:38:54.629Z,557.00
2023-02-19T08:39:54.642Z,553.00
2023-02-19T08:40:54.654Z,553.00
2023-02-19T08:41:55.681Z,538.00
2023-02-19T08:42:54.674Z,539.00
2023-02-19T08:43:54.691Z,536.00
2023-02-19T08:44:54.680Z,547.00
2023-02-19T08:45:54.809Z,540.00
2023-02-19T08:46:54.710Z,537.00
2023-02-19T08:47:54.710Z,535.00
2023-02-19T08:48:54.708Z,542.00
2023-02-19T08:49:54.695Z,546.00
2023-02-19T08:50:54.697Z,552.00
2023-02-19T08:51:54.707Z,549.00
2023-02-19T08:52:54.794Z,542.00
2023-02-19T08:53:54.756Z,543.00
2023-02-19T08:54:54.801Z,547.00
2023-02-19T08:55:54.919Z,545.00
2023-02-19T08:56:55.742Z,507.00
2023-02-19T08:57:55.033Z,521.00
2023-02-19T08:58:55.004Z,534.00
2023-02-19T08:59:55.078Z,536.00
2023-02-19T09:00:55.129Z,543.00
2023-02-19T09:01:55.130Z,538.00
2023-02-19T09:02:55.155Z,584.00
2023-02-19T09:03:55.204Z,632.00
2023-02-19T09:04:55.245Z,691.00
2023-02-19T09:05:55.252Z,730.00
2023-02-19T09:06:55.263Z,674.00
2023-02-19T09:07:55.297Z,641.00
2023-02-19T09:08:55.335Z,719.00
2023-02-19T09:09:55.366Z,660.00
2023-02-19T09:10:55.409Z,702.00
2023-02-19T09:11:55.438Z,801.00
2023-02-19T09:12:55.478Z,834.00
2023-02-19T09:13:55.496Z,736.00
2023-02-19T09:14:55.513Z,781.00
2023-02-19T09:15:55.568Z,839.00
2023-02-19T09:16:55.588Z,958.00
2023-02-19T09:17:55.592Z,1092.00
2023-02-19T09:24:55.834Z,1032.00
2023-02-19T10:12:58.197Z,662.00
2023-02-19T10:29:57.838Z,512.00
2023-02-19T10:30:57.926Z,505.00
2023-02-19T10:31:58.027Z,509.00
2023-02-19T10:32:58.006Z,500.00
2023-02-19T10:33:58.063Z,501.00
2023-02-19T10:34:58.128Z,507.00
2023-02-19T10:35:58.251Z,500.00
2023-02-19T10:36:58.185Z,504.00
2023-02-19T10:37:58.203Z,507.00
2023-02-19T10:38:58.230Z,508.00
2023-02-19T10:39:58.254Z,506.00
2023-02-19T10:40:58.268Z,500.00
2023-02-19T10:41:58.351Z,504.00
2023-02-19T10:42:58.275Z,503.00
2023-02-19T10:43:59.222Z,504.00
2023-02-19T10:44:58.303Z,511.00
2023-02-19T10:45:58.351Z,506.00
2023-02-19T10:46:58.304Z,503.00
2023-02-19T10:47:58.384Z,508.00
2023-02-19T10:48:58.432Z,501.00
2023-02-19T10:49:58.458Z,511.00
2023-02-19T10:50:58.477Z,511.00
2023-02-19T10:51:58.476Z,500.00
2023-02-19T10:52:58.520Z,508.00
2023-02-19T10:53:58.501Z,506.00
2023-02-19T10:54:58.557Z,507.00
2023-02-19T10:55:58.566Z,501.00
2023-02-19T10:56:58.590Z,500.00
2023-02-19T10:57:59.218Z,505.00
2023-02-19T10:58:58.585Z,510.00
2023-02-19T10:59:58.612Z,513.00
2023-02-19T11:00:58.619Z,512.00
2023-02-19T11:01:58.731Z,503.00
2023-02-19T11:02:58.652Z,508.00
2023-02-19T11:03:58.663Z,508.00
2023-02-19T11:04:58.743Z,513.00
2023-02-19T11:05:58.696Z,507.00
2023-02-19T11:06:58.733Z,513.00
2023-02-19T11:07:58.725Z,512.00
2023-02-19T11:08:58.736Z,520.00
2023-02-19T11:09:58.772Z,519.00
2023-02-19T11:10:58.783Z,515.00
2023-02-19T11:11:58.805Z,515.00
2023-02-19T11:12:58.814Z,507.00
2023-02-19T11:13:58.818Z,517.00
2023-02-19T11:14:58.836Z,509.00
2023-02-19T11:15:58.894Z,512.00
2023-02-19T11:16:58.917Z,518.00
2023-02-19T11:17:58.910Z,515.00
2023-02-19T11:18:58.928Z,512.00
2023-02-19T11:19:58.954Z,506.00
2023-02-19T11:20:58.985Z,501.00
2023-02-19T11:21:59.006Z,505.00
2023-02-19T11:22:59.029Z,511.00
2023-02-19T11:23:59.059Z,510.00
2023-02-19T11:24:59.558Z,509.00
2023-02-19T11:25:59.124Z,508.00
2023-02-19T11:26:59.157Z,505.00
2023-02-19T11:27:59.194Z,509.00
2023-02-19T11:28:59.235Z,514.00
2023-02-19T11:29:59.311Z,509.00
2023-02-19T11:30:59.344Z,513.00
2023-02-19T11:31:59.395Z,509.00
2023-02-19T11:32:59.405Z,510.00
2023-02-19T11:33:59.440Z,505.00
2023-02-19T11:34:59.483Z,511.00
2023-02-19T11:35:59.535Z,514.00
2023-02-19T11:36:59.574Z,513.00
2023-02-19T11:37:59.629Z,511.00
2023-02-19T11:38:59.661Z,510.00
2023-02-19T11:39:59.711Z,515.00
2023-02-19T11:40:59.759Z,507.00
2023-02-19T11:41:59.804Z,513.00
2023-02-19T11:42:59.912Z,511.00
2023-02-19T11:43:59.918Z,519.00
2023-02-19T11:44:59.965Z,512.00
2023-02-19T11:46:00.030Z,514.00
2023-02-19T11:47:00.088Z,510.00
2023-02-19T11:48:00.140Z,507.00
2023-02-19T11:49:00.203Z,510.00
2023-02-19T11:50:00.255Z,507.00
2023-02-19T11:51:00.315Z,507.00
2023-02-19T11:52:00.454Z,509.00
2023-02-19T11:53:00.456Z,511.00
2023-02-19T11:54:00.501Z,510.00
2023-02-19T11:55:00.559Z,507.00
2023-02-19T11:56:00.611Z,510.00
2023-02-19T11:57:00.679Z,509.00
2023-02-19T11:58:00.677Z,504.00
2023-02-19T11:59:01.269Z,504.00
2023-02-19T12:00:01.030Z,511.00
2023-02-19T12:01:00.792Z,513.00
2023-02-19T12:02:00.870Z,500.00
2023-02-19T12:03:00.802Z,505.00
2023-02-19T12:04:00.818Z,500.00
2023-02-19T12:05:00.958Z,500.00
2023-02-19T12:06:00.879Z,499.00
2023-02-19T12:07:00.821Z,468.00
2023-02-19T12:08:00.818Z,508.00
2023-02-19T12:09:00.826Z,531.00
2023-02-19T12:10:00.862Z,534.00
2023-02-19T12:11:00.836Z,590.00
2023-02-19T12:12:00.873Z,570.00
2023-02-19T12:13:00.859Z,605.00
2023-02-19T12:14:00.882Z,589.00
2023-02-19T12:15:01.125Z,600.00
2023-02-19T12:16:00.917Z,590.00
2023-02-19T12:17:00.909Z,604.00
2023-02-19T12:18:00.917Z,548.00
2023-02-19T12:19:00.943Z,522.00
2023-02-19T12:20:00.952Z,517.00
2023-02-19T12:21:00.969Z,494.00
2023-02-19T12:22:01.046Z,527.00
2023-02-19T12:23:00.993Z,594.00
2023-02-19T12:24:01.004Z,622.00
2023-02-19T12:25:01.132Z,559.00
2023-02-19T12:26:01.031Z,606.00
2023-02-19T12:27:01.045Z,636.00
2023-02-19T12:28:01.072Z,634.00
2023-02-19T12:29:01.093Z,632.00
2023-02-19T12:30:01.140Z,599.00
2023-02-19T12:31:01.159Z,527.00
2023-02-19T12:32:01.195Z,501.00
2023-02-19T12:33:01.201Z,500.00
2023-02-19T12:34:01.224Z,500.00
2023-02-19T12:35:01.248Z,500.00
2023-02-19T12:36:01.274Z,502.00
2023-02-19T12:37:01.306Z,519.00
2023-02-19T12:38:01.341Z,551.00
2023-02-19T12:39:01.465Z,602.00
2023-02-19T12:40:01.451Z,550.00
2023-02-19T12:41:01.434Z,571.00
2023-02-19T12:42:01.464Z,606.00
2023-02-19T12:43:01.498Z,536.00
2023-02-19T12:44:01.529Z,520.00
2023-02-19T12:45:01.561Z,506.00
2023-02-19T12:46:01.613Z,504.00
2023-02-19T12:47:01.650Z,500.00
2023-02-19T12:48:01.659Z,502.00
2023-02-19T12:49:01.772Z,505.00
2023-02-19T12:50:01.725Z,500.00
2023-02-19T12:51:01.762Z,531.00
2023-02-19T12:52:01.804Z,591.00
2023-02-19T12:53:01.840Z,552.00
2023-02-19T12:54:01.870Z,533.00
2023-02-19T12:55:01.915Z,536.00
2023-02-19T12:56:01.964Z,628.00
2023-02-19T12:57:01.996Z,625.00
2023-02-19T12:58:02.037Z,593.00
2023-02-19T12:59:02.076Z,581.00
2023-02-19T13:00:02.128Z,562.00
2023-02-19T13:01:02.231Z,572.00
2023-02-19T13:02:02.257Z,569.00
2023-02-19T13:03:02.268Z,548.00
2023-02-19T13:04:02.306Z,551.00
2023-02-19T13:05:02.788Z,542.00
2023-02-19T13:06:02.432Z,548.00
2023-02-19T13:07:02.478Z,528.00
2023-02-19T13:08:02.522Z,527.00
2023-02-19T13:09:06.739Z,535.00
2023-02-19T13:10:02.570Z,535.00
2023-02-19T13:11:02.602Z,528.00
2023-02-19T13:12:02.551Z,519.00
2023-02-19T13:13:02.549Z,525.00
2023-02-19T13:14:02.540Z,526.00
2023-02-19T13:15:02.547Z,520.00
2023-02-19T13:16:02.537Z,508.00
2023-02-19T13:17:02.581Z,521.00
2023-02-19T13:18:02.521Z,509.00
2023-02-19T13:19:02.509Z,512.00
2023-02-19T13:20:02.519Z,512.00
2023-02-19T13:21:02.491Z,504.00
2023-02-19T13:22:02.494Z,512.00
2023-02-19T13:23:02.491Z,510.00
2023-02-19T13:24:02.481Z,499.00
2023-02-19T13:25:02.498Z,515.00
2023-02-19T13:26:02.540Z,560.00
2023-02-19T13:27:02.506Z,555.00
2023-02-19T13:28:02.548Z,544.00
2023-02-19T13:29:02.611Z,548.00
2023-02-19T13:30:02.711Z,536.00
2023-02-19T13:31:02.887Z,532.00
2023-02-19T13:32:02.983Z,547.00
2023-02-19T13:33:02.849Z,544.00
2023-02-19T13:34:02.898Z,558.00
2023-02-19T13:35:02.988Z,549.00
2023-02-19T13:36:03.023Z,552.00
2023-02-19T13:37:03.081Z,549.00
2023-02-19T13:38:03.128Z,535.00
2023-02-19T13:39:03.205Z,540.00
2023-02-19T13:40:03.245Z,546.00
2023-02-19T13:41:03.353Z,548.00
2023-02-19T13:42:03.339Z,527.00
2023-02-19T13:43:03.390Z,538.00
2023-02-19T13:44:03.452Z,542.00
2023-02-19T15:03:07.919Z,837.00
2023-02-19T15:04:07.974Z,850.00
2023-02-19T15:05:08.032Z,812.00
2023-02-19T15:06:08.081Z,784.00
2023-02-19T15:07:08.146Z,835.00
2023-02-19T15:08:08.318Z,813.00
2023-02-19T15:09:08.254Z,758.00
2023-02-19T15:23:09.085Z,915.00
2023-02-19T15:24:09.144Z,936.00
2023-02-19T17:51:12.636Z,1148.00
2023-02-19T17:52:12.470Z,1139.00
2023-02-19T17:53:12.480Z,1148.00
2023-02-19T17:54:12.490Z,1175.00
2023-02-19T17:55:12.483Z,1205.00
2023-02-19T17:56:12.474Z,1223.00
2023-02-19T17:57:12.486Z,1215.00
2023-02-19T17:58:12.485Z,1221.00
2023-02-19T17:59:12.489Z,1220.00
2023-02-19T18:00:12.485Z,1219.00
2023-02-19T18:01:12.772Z,1237.00
2023-02-19T18:02:12.469Z,1244.00
2023-02-19T18:03:12.475Z,1246.00
2023-02-19T18:04:12.526Z,1228.00
2023-02-19T18:05:12.500Z,1255.00
2023-02-19T18:06:12.503Z,1270.00
2023-02-19T18:07:12.509Z,1268.00
2023-02-19T18:08:12.540Z,1262.00
2023-02-19T18:09:13.395Z,1252.00
2023-02-19T18:10:12.622Z,1236.00
2023-02-19T18:11:12.912Z,1256.00
2023-02-19T18:12:12.605Z,1276.00
2023-02-19T18:13:12.639Z,1266.00
2023-02-19T18:14:12.659Z,1268.00
2023-02-19T18:15:13.402Z,1237.00
2023-02-19T18:16:12.702Z,1250.00
2023-02-19T18:17:12.697Z,1261.00
2023-02-19T18:18:12.756Z,1272.00
2023-02-19T18:19:12.767Z,1290.00
2023-02-19T18:20:12.797Z,1286.00
2023-02-19T18:21:13.148Z,1300.00
2023-02-19T18:22:12.842Z,1294.00
2023-02-19T18:23:12.918Z,1301.00
2023-02-19T18:24:12.883Z,1312.00
2023-02-19T18:25:12.913Z,1287.00
2023-02-19T18:26:12.936Z,1289.00
2023-02-19T18:27:12.944Z,1281.00
2023-02-19T18:28:12.972Z,1268.00
2023-02-19T18:29:12.988Z,1279.00
2023-02-19T18:30:13.940Z,1272.00
2023-02-19T18:31:13.418Z,1290.00
2023-02-19T18:32:13.019Z,1274.00
2023-02-19T18:33:13.026Z,1254.00
2023-02-19T18:34:13.033Z,1265.00
2023-02-19T18:35:13.065Z,1282.00
2023-02-19T18:36:13.069Z,1293.00
2023-02-19T18:37:13.077Z,1284.00
2023-02-19T18:38:13.105Z,1290.00
2023-02-19T20:29:17.938Z,1270.00
2023-02-19T20:42:17.807Z,1268.00
2023-02-19T20:43:17.870Z,1272.00
2023-02-19T20:44:18.455Z,1273.00
2023-02-19T20:45:17.902Z,1267.00
2023-02-19T20:46:17.926Z,1270.00
2023-02-19T20:47:17.901Z,1269.00
2023-02-19T20:48:17.943Z,1258.00
2023-02-19T20:53:18.121Z,1254.00
2023-02-19T21:29:18.535Z,1157.00
2023-02-19T21:31:18.614Z,1165.00
2023-02-19T21:32:18.626Z,1178.00
2023-02-19T21:33:18.527Z,1194.00
2023-02-19T21:34:18.534Z,1200.00
2023-02-19T21:35:18.624Z,1182.00
2023-02-19T21:36:18.538Z,1200.00
2023-02-19T21:37:18.523Z,1198.00
2023-02-19T21:38:18.530Z,1193.00
2023-02-19T21:39:18.593Z,1190.00
2023-02-19T21:40:18.579Z,1186.00
2023-02-19T21:41:18.601Z,1182.00
2023-02-19T21:42:18.601Z,1181.00
2023-02-19T21:43:18.599Z,1169.00
2023-02-19T21:44:18.608Z,1178.00
2023-02-19T21:45:18.607Z,1174.00
2023-02-19T21:47:18.602Z,1162.00
2023-02-19T21:48:18.605Z,1153.00
2023-02-19T21:49:18.605Z,1154.00
2023-02-19T21:50:18.612Z,1149.00
2023-02-19T21:51:18.629Z,1155.00
2023-02-19T21:52:18.622Z,1166.00
2023-02-19T21:53:18.622Z,1161.00
2023-02-19T21:54:18.627Z,1165.00
2023-02-19T21:55:18.675Z,1148.00
2023-02-19T21:56:18.658Z,1155.00
2023-02-19T21:57:18.660Z,1141.00
2023-02-19T21:58:18.654Z,1149.00
2023-02-19T21:59:18.690Z,1155.00
2023-02-19T22:00:18.697Z,1156.00
2023-02-19T22:01:18.710Z,1156.00
2023-02-19T22:02:18.771Z,1149.00
2023-02-19T22:03:18.700Z,1141.00
2023-02-19T22:04:18.692Z,1131.00
2023-02-19T22:05:18.691Z,1154.00
2023-02-19T22:06:18.695Z,1158.00
2023-02-19T22:07:18.692Z,1176.00
2023-02-19T22:08:18.706Z,1179.00
2023-02-19T22:09:18.702Z,1159.00
2023-02-19T22:10:18.705Z,1159.00
2023-02-19T22:11:18.715Z,1166.00
2023-02-19T22:12:18.698Z,1166.00
2023-02-19T22:13:18.712Z,1153.00
2023-02-19T22:14:18.705Z,1161.00
2023-02-19T22:15:18.727Z,1175.00
2023-02-19T22:16:18.732Z,1155.00
2023-02-19T22:17:18.696Z,1165.00
2023-02-19T22:18:18.696Z,1162.00
2023-02-19T22:19:18.702Z,1163.00
2023-02-19T22:20:18.846Z,1172.00
2023-02-19T22:21:18.710Z,1174.00
2023-02-19T22:22:18.701Z,1168.00
2023-02-19T22:23:18.697Z,1191.00
2023-02-19T22:24:19.494Z,1183.00
2023-02-19T22:25:18.713Z,1187.00
2023-02-19T22:26:18.741Z,1188.00
2023-02-19T22:27:18.725Z,1193.00
2023-02-19T22:28:18.742Z,1183.00
2023-02-19T22:29:18.756Z,1174.00
2023-02-19T22:30:18.830Z,1186.00
2023-02-19T22:31:18.853Z,1184.00
2023-02-19T22:32:18.959Z,1184.00
2023-02-19T22:33:18.842Z,1178.00
2023-02-19T22:34:18.847Z,1169.00
2023-02-19T22:35:18.841Z,1162.00
2023-02-19T22:36:18.891Z,1158.00
2023-02-19T22:37:18.896Z,1176.00
2023-02-19T22:38:18.943Z,1173.00
2023-02-19T22:39:18.990Z,1168.00
2023-02-19T22:40:19.028Z,1157.00
2023-02-19T22:41:19.060Z,1158.00
2023-02-19T22:42:19.107Z,1161.00
2023-02-19T22:43:19.190Z,1157.00
2023-02-19T22:44:19.180Z,1157.00
2023-02-19T22:45:19.204Z,1158.00
2023-02-19T22:46:19.409Z,1166.00
2023-02-19T22:47:19.333Z,1167.00
2023-02-19T22:48:29.708Z,1173.00
2023-02-19T22:50:19.351Z,1174.00
2023-02-19T22:51:19.496Z,1178.00
2023-02-19T22:52:19.343Z,1169.00
2023-02-19T22:54:19.320Z,1162.00
2023-02-19T22:55:19.313Z,1149.00
2023-02-19T22:56:19.317Z,1159.00
2023-02-19T22:57:19.297Z,1165.00
2023-02-19T22:58:19.332Z,1176.00
2023-02-19T22:59:19.421Z,1164.00
2023-02-19T23:00:19.462Z,1170.00
